Time;durP1;ratioP1;P1;durP2;ratioP2;P2;SDS_P1;SDS_P2;PMS_P1;PMS_P2;Temp;Humidity;BMP_temperature;BMP_pressure;BME280_temperature;BME280_humidity;BME280_pressure;Samples;Min_cycle;Max_cycle;Signal;HPM_P1;HPM_P2
2023/05/03 00:00:26;;;;;;;4.77;2.57;;;;;;;6.13;71.94;102799.13;5012662;28;20494;-85
2023/05/03 00:03:03;;;;;;;7.03;2.90;;;;;;;5.97;72.81;102797.63;5012617;28;20026;-86
2023/05/03 00:05:28;;;;;;;6.03;3.03;;;;;;;5.93;73.26;102807.78;5013245;28;20433;-86
2023/05/03 00:07:55;;;;;;;4.93;2.73;;;;;;;5.93;73.46;102808.69;5011955;28;20114;-85
2023/05/03 00:10:21;;;;;;;5.80;3.05;;;;;;;5.80;74.11;102799.63;5012822;28;20033;-86
2023/05/03 00:12:46;;;;;;;6.63;2.90;;;;;;;5.76;72.63;102795.19;5012967;28;20034;-86
2023/05/03 00:15:12;;;;;;;5.47;2.83;;;;;;;5.79;72.67;102799.56;5012522;28;20021;-86
2023/05/03 00:17:37;;;;;;;4.63;2.80;;;;;;;5.81;73.49;102811.69;5013039;28;20017;-86
2023/05/03 00:20:03;;;;;;;5.17;2.93;;;;;;;5.81;72.71;102803.09;5012653;28;20033;-86
2023/05/03 00:22:29;;;;;;;5.82;2.80;;;;;;;5.78;74.08;102811.59;5083429;23;20135;-85
2023/05/03 00:24:55;;;;;;;3.28;2.30;;;;;;;5.80;72.04;102802.19;5032591;28;20057;-86
2023/05/03 00:27:20;;;;;;;4.75;2.67;;;;;;;5.82;72.96;102805.72;5032141;28;20033;-86
2023/05/03 00:29:46;;;;;;;4.40;2.22;;;;;;;5.82;72.71;102805.72;5032023;28;20057;-86
2023/05/03 00:32:11;;;;;;;2.72;2.00;;;;;;;5.79;71.59;102794.41;5032852;28;20470;-86
2023/05/03 00:34:37;;;;;;;2.75;2.10;;;;;;;5.86;71.21;102810.16;5036041;28;20040;-86
2023/05/03 00:37:03;;;;;;;1.85;1.70;;;;;;;5.91;70.88;102807.75;5035808;28;20363;-86
2023/05/03 00:39:31;;;;;;;2.00;1.80;;;;;;;5.88;71.39;102798.22;5036201;28;20025;-86
2023/05/03 00:41:57;;;;;;;2.00;1.90;;;;;;;5.84;73.36;102800.63;5036309;28;20484;-86
2023/05/03 00:44:23;;;;;;;2.10;1.90;;;;;;;5.81;72.50;102808.25;5035487;28;20025;-87
2023/05/03 00:46:49;;;;;;;2.07;1.60;;;;;;;5.78;72.08;102809.00;5036283;28;20405;-86
2023/05/03 00:49:17;;;;;;;1.80;1.70;;;;;;;5.80;71.69;102817.66;5036246;28;20033;-87
2023/05/03 00:51:43;;;;;;;1.60;1.50;;;;;;;5.82;70.54;102818.59;5035230;28;20036;-86
2023/05/03 00:54:10;;;;;;;1.90;1.80;;;;;;;5.78;71.05;102801.28;5035633;28;20026;-86
2023/05/03 00:56:36;;;;;;;;;;;;;;;5.83;70.58;102804.03;5035938;28;20079;-86
2023/05/03 00:59:02;;;;;;;2.63;1.88;;;;;;;5.80;71.04;102802.19;5035455;28;20323;-87
2023/05/03 01:01:31;;;;;;;1.97;1.50;;;;;;;5.79;73.07;102797.88;5035901;28;20022;-87
2023/05/03 01:04:03;;;;;;;1.88;1.58;;;;;;;5.72;71.24;102793.31;5035858;28;20028;-86
2023/05/03 01:06:37;;;;;;;1.58;1.48;;;;;;;5.72;71.06;102796.78;5035593;28;20485;-87
2023/05/03 01:09:05;;;;;;;1.65;1.48;;;;;;;5.70;70.85;102800.09;5035714;28;20085;-87
2023/05/03 01:11:39;;;;;;;1.50;1.40;;;;;;;5.66;70.62;102799.13;5034991;28;20033;-86
2023/05/03 01:14:15;;;;;;;1.90;1.30;;;;;;;5.60;71.45;102798.03;5035771;28;20032;-86
2023/05/03 01:16:50;;;;;;;3.47;2.10;;;;;;;5.54;74.37;102803.81;5035387;28;20108;-87
2023/05/03 01:19:29;;;;;;;3.97;2.10;;;;;;;5.50;72.31;102807.13;5035226;28;20037;-87
2023/05/03 01:22:42;;;;;;;5.13;2.00;;;;;;;5.47;74.78;102807.84;5035188;28;20045;-86
2023/05/03 01:25:10;;;;;;;2.92;2.00;;;;;;;5.40;74.47;102808.47;5027362;28;22051;-86
2023/05/03 01:27:36;;;;;;;1.88;1.70;;;;;;;5.38;72.62;102807.53;5035326;28;20056;-87
2023/05/03 01:30:07;;;;;;;2.05;1.80;;;;;;;5.38;72.07;102812.66;5035112;28;20457;-86
2023/05/03 01:33:03;;;;;;;2.05;1.85;;;;;;;5.37;72.12;102811.81;5034226;28;20492;-86
2023/05/03 01:35:46;;;;;;;1.60;1.50;;;;;;;5.39;74.37;102820.47;5035229;28;20044;-86
2023/05/03 01:38:16;;;;;;;3.78;2.00;;;;;;;5.27;74.36;102807.13;5034855;28;20025;-87
2023/05/03 01:40:48;;;;;;;2.92;2.20;;;;;;;5.22;75.65;102813.78;5034502;28;20029;-86
2023/05/03 01:43:16;;;;;;;3.63;2.20;;;;;;;5.15;73.66;102817.81;5035235;28;20420;-87
2023/05/03 01:45:45;;;;;;;3.03;2.20;;;;;;;5.12;75.06;102812.56;5033962;28;20033;-86
2023/05/03 01:48:15;;;;;;;4.95;2.20;;;;;;;5.09;75.29;102815.00;5034555;28;20033;-86
2023/05/03 01:50:41;;;;;;;3.50;1.80;;;;;;;5.05;73.62;102802.84;5034798;28;20116;-85
2023/05/03 01:53:06;;;;;;;2.17;1.80;;;;;;;5.05;72.86;102802.84;5035008;28;20040;-86
2023/05/03 01:55:31;;;;;;;1.80;1.70;;;;;;;5.11;73.08;102813.38;5034118;28;20017;-87
2023/05/03 01:57:57;;;;;;;4.88;2.10;;;;;;;5.07;74.46;102820.06;5035132;28;20057;-86
2023/05/03 02:00:22;;;;;;;3.73;2.10;;;;;;;5.02;74.96;102813.00;5034035;28;20382;-86
2023/05/03 02:03:13;;;;;;;4.10;2.85;;;;;;;4.96;76.91;102811.06;5034735;28;20064;-86
2023/05/03 02:05:38;;;;;;;5.50;2.60;;;;;;;4.92;75.12;102807.50;5034605;28;20028;-86
2023/05/03 02:08:03;;;;;;;2.58;2.20;;;;;;;4.93;74.79;102811.81;5033706;28;20025;-87
2023/05/03 02:10:29;;;;;;;2.20;2.00;;;;;;;4.86;74.47;102796.06;5034555;28;20026;-86
2023/05/03 02:12:57;;;;;;;2.90;2.00;;;;;;;4.96;73.85;102808.47;5034406;28;20024;-87
2023/05/03 02:15:22;;;;;;;3.33;1.90;;;;;;;4.94;74.36;102816.16;5033969;28;20057;-86
2023/05/03 02:17:48;;;;;;;2.38;1.70;;;;;;;4.96;73.70;102813.63;5034421;28;20053;-87
2023/05/03 02:20:13;;;;;;;2.05;1.85;;;;;;;4.96;74.28;102800.75;5034524;28;20109;-87
2023/05/03 02:22:39;;;;;;;1.90;1.70;;;;;;;4.94;73.46;102803.28;5033565;28;20045;-87
2023/05/03 02:25:05;;;;;;;2.47;1.70;;;;;;;4.92;76.57;102798.91;5034242;28;20025;-86
2023/05/03 02:27:40;;;;;;;2.95;1.80;;;;;;;4.88;73.67;102799.59;5034259;28;20386;-87
2023/05/03 02:30:06;;;;;;;2.15;1.77;;;;;;;4.87;73.62;102792.69;5033869;28;20029;-87
2023/05/03 02:32:31;;;;;;;4.53;2.00;;;;;;;4.85;74.60;102795.22;5033914;28;20472;-86
2023/05/03 02:34:56;;;;;;;2.00;1.77;;;;;;;4.87;74.84;102792.69;5033908;28;20106;-86
2023/05/03 02:37:22;;;;;;;1.83;1.58;;;;;;;4.83;76.74;102789.13;5033616;28;20026;-87
2023/05/03 02:39:47;;;;;;;4.97;2.70;;;;;;;4.69;78.50;102777.38;5034604;28;20018;-86
2023/05/03 02:42:13;;;;;;;6.28;3.47;;;;;;;4.55;79.54;102775.16;5034151;28;20113;-86
2023/05/03 02:44:38;;;;;;;8.25;3.65;;;;;;;4.50;78.71;102770.66;5033560;28;20458;-87
2023/05/03 02:47:04;;;;;;;6.20;3.45;;;;;;;4.46;78.25;102773.09;5034168;28;20132;-87
2023/05/03 02:49:29;;;;;;;8.55;3.63;;;;;;;4.42;79.50;102770.31;5033071;28;20382;-86
2023/05/03 02:51:55;;;;;;;7.90;3.47;;;;;;;4.35;79.60;102766.63;5013850;28;20093;-87
2023/05/03 02:54:21;;;;;;;6.35;3.38;;;;;;;4.31;80.51;102759.59;5013940;28;20418;-86
2023/05/03 02:56:46;;;;;;;9.73;3.97;;;;;;;4.17;81.68;102739.31;5024362;28;20076;-87
2023/05/03 02:59:11;;;;;;;8.77;3.88;;;;;;;4.17;81.42;102736.75;5033886;28;20470;-87
2023/05/03 03:01:37;;;;;;;8.98;4.00;;;;;;;4.14;82.02;102744.34;5033302;28;20045;-86
2023/05/03 03:04:02;;;;;;;9.80;4.20;;;;;;;4.11;81.98;102746.78;5033500;28;20029;-86
2023/05/03 03:06:27;;;;;;;8.90;4.22;;;;;;;4.08;82.13;102749.22;5033487;28;20075;-86
2023/05/03 03:08:53;;;;;;;8.57;3.80;;;;;;;4.05;82.11;102746.53;5033656;28;20040;-87
2023/05/03 03:11:18;;;;;;;6.53;3.65;;;;;;;4.06;81.62;102753.41;5033302;28;20028;-86
2023/05/03 03:13:43;;;;;;;7.72;3.75;;;;;;;4.00;80.91;102753.16;5033359;28;20029;-87
2023/05/03 03:16:09;;;;;;;7.38;3.70;;;;;;;4.07;82.05;102780.00;5033285;28;20104;-86
2023/05/03 03:18:35;;;;;;;7.00;3.65;;;;;;;4.01;82.94;102775.47;5032302;28;20025;-86
2023/05/03 03:21:01;;;;;;;7.57;4.63;;;;;;;4.00;82.46;102763.44;5032630;28;20081;-87
2023/05/03 03:23:26;;;;;;;10.20;4.10;;;;;;;3.92;82.68;102757.09;5033520;28;20041;-86
2023/05/03 03:25:51;;;;;;;9.88;4.32;;;;;;;3.92;82.66;102762.25;5032924;28;20029;-87
2023/05/03 03:28:17;;;;;;;8.07;4.10;;;;;;;3.91;83.58;102784.47;5033399;28;20033;-87
2023/05/03 03:30:45;;;;;;;10.27;4.20;;;;;;;3.90;83.80;102777.56;5033280;28;20477;-86
2023/05/03 03:33:11;;;;;;;8.45;4.43;;;;;;;3.90;83.84;102779.28;5032869;28;20087;-86
2023/05/03 03:35:37;;;;;;;8.93;4.20;;;;;;;3.91;81.82;102776.75;5033203;28;20440;-87
2023/05/03 03:38:03;;;;;;;6.57;3.70;;;;;;;3.91;82.39;102765.63;5033347;28;20075;-87
2023/05/03 03:40:28;;;;;;;7.25;4.00;;;;;;;3.95;82.82;102770.94;5032574;28;20025;-87
2023/05/03 03:42:53;;;;;;;8.25;3.85;;;;;;;3.91;83.29;102769.06;5033140;28;20075;-87
2023/05/03 03:45:18;;;;;;;7.80;4.05;;;;;;;3.93;82.96;102771.72;5032719;28;20025;-87
2023/05/03 03:47:44;;;;;;;7.55;4.15;;;;;;;3.90;83.98;102769.84;5032316;28;20381;-86
2023/05/03 03:50:09;;;;;;;8.95;3.97;;;;;;;3.88;83.50;102760.34;5032378;28;20040;-87
2023/05/03 03:52:35;;;;;;;8.48;4.10;;;;;;;3.81;82.92;102749.81;5033049;28;20124;-87
2023/05/03 03:55:00;;;;;;;10.43;4.60;;;;;;;3.84;83.78;102764.47;5032555;28;20034;-87
2023/05/03 03:57:28;;;;;;;9.67;5.20;;;;;;;3.77;83.89;102758.19;5033157;28;20461;-87
2023/05/03 04:00:04;;;;;;;10.18;4.60;;;;;;;3.81;82.83;102765.22;5032328;28;20041;-86
2023/05/03 04:02:29;;;;;;;7.97;4.38;;;;;;;3.79;84.37;102774.53;5032997;28;20441;-87
2023/05/03 04:04:54;;;;;;;9.80;4.68;;;;;;;3.77;83.96;102777.88;5033178;28;20056;-87
2023/05/03 04:07:20;;;;;;;8.65;4.40;;;;;;;3.78;84.12;102784.72;5032192;28;20026;-86
2023/05/03 04:09:46;;;;;;;10.07;4.75;;;;;;;3.74;84.71;102778.59;5036718;28;20022;-87
2023/05/03 04:12:11;;;;;;;8.90;4.78;;;;;;;3.75;84.16;102775.22;5037151;28;20029;-87
2023/05/03 04:14:36;;;;;;;9.45;4.53;;;;;;;3.74;84.18;102777.72;5035750;28;20021;-87
2023/05/03 04:17:03;;;;;;;10.57;4.95;;;;;;;3.76;84.22;102779.53;5036630;28;20054;-87
2023/05/03 04:19:28;;;;;;;6.20;4.20;;;;;;;3.77;84.27;102785.56;5036891;28;20024;-86
2023/05/03 04:21:54;;;;;;;5.75;3.88;;;;;;;3.81;82.63;102783.22;5036337;28;20037;-86
2023/05/03 04:24:19;;;;;;;8.40;3.92;;;;;;;3.82;84.48;102787.53;5036940;28;20084;-86
2023/05/03 04:26:44;;;;;;;8.80;4.85;;;;;;;3.80;83.97;102783.13;5036692;28;20022;-87
2023/05/03 04:29:11;;;;;;;10.80;4.55;;;;;;;3.80;83.80;102783.13;5036037;28;20053;-87
2023/05/03 04:31:37;;;;;;;8.82;4.40;;;;;;;3.77;84.45;102789.00;5036349;28;20508;-87
2023/05/03 04:34:03;;;;;;;9.18;4.72;;;;;;;3.75;84.34;102785.47;5036893;28;20021;-87
2023/05/03 04:36:28;;;;;;;10.68;4.95;;;;;;;3.74;84.51;102785.44;5036084;28;20038;-87
2023/05/03 04:38:54;;;;;;;9.35;4.60;;;;;;;3.73;84.17;102794.81;5036651;28;20029;-87
2023/05/03 04:41:20;;;;;;;10.53;5.30;;;;;;;3.73;84.91;102799.06;5036423;28;20018;-86
2023/05/03 04:43:45;;;;;;;9.02;4.45;;;;;;;3.76;83.85;102802.66;5036157;28;20425;-87
2023/05/03 04:46:10;;;;;;;7.03;4.00;;;;;;;3.81;83.47;102810.56;5036719;28;20045;-87
2023/05/03 04:48:36;;;;;;;10.90;4.70;;;;;;;3.82;83.97;102813.22;5036254;28;20367;-87
2023/05/03 04:51:01;;;;;;;8.90;4.13;;;;;;;3.86;83.75;102816.78;5036066;28;20021;-87
2023/05/03 04:53:26;;;;;;;7.07;3.90;;;;;;;3.94;82.54;102835.13;5035987;28;20378;-87
2023/05/03 04:55:52;;;;;;;5.20;3.30;;;;;;;3.99;82.15;102836.19;5036147;28;20469;-87
2023/05/03 04:58:17;;;;;;;5.78;3.47;;;;;;;4.00;82.93;102828.53;5035807;28;20056;-86
2023/05/03 05:00:44;;;;;;;4.35;3.13;;;;;;;4.10;82.60;102840.13;5036119;28;20061;-87
2023/05/03 05:03:09;;;;;;;4.47;2.90;;;;;;;4.13;82.68;102844.50;5036106;28;20391;-86
2023/05/03 05:05:38;;;;;;;6.93;3.60;;;;;;;4.17;82.61;102848.97;5035945;28;20026;-87
2023/05/03 05:08:03;;;;;;;5.90;3.10;;;;;;;4.23;82.17;102854.38;5035440;28;20389;-86
2023/05/03 05:10:28;;;;;;;3.63;2.70;;;;;;;4.29;81.78;102857.22;5035095;28;20120;-86
2023/05/03 05:12:54;;;;;;;7.00;3.40;;;;;;;4.32;82.78;102851.31;5035842;28;20588;-86
2023/05/03 05:15:19;;;;;;;10.60;4.30;;;;;;;4.31;82.26;102853.03;5035957;28;20029;-87
2023/05/03 05:17:44;;;;;;;7.87;4.20;;;;;;;4.35;82.78;102856.59;5035034;28;20032;-86
2023/05/03 05:20:13;;;;;;;9.20;4.10;;;;;;;4.37;81.47;102844.69;5035542;28;20048;-86
2023/05/03 05:22:38;;;;;;;12.02;5.60;;;;;;;4.35;81.81;102846.31;5035187;28;20057;-87
2023/05/03 05:25:07;;;;;;;12.88;5.10;;;;;;;4.35;81.88;102848.88;5034533;28;20061;-87
2023/05/03 05:27:33;;;;;;;11.88;5.10;;;;;;;4.46;82.04;102849.31;5035302;28;20030;-87
2023/05/03 05:29:58;;;;;;;9.30;4.78;;;;;;;4.46;81.79;102844.19;5036033;28;20033;-86
2023/05/03 05:32:24;;;;;;;7.75;4.63;;;;;;;4.54;81.07;102841.94;5034667;28;20029;-87
2023/05/03 05:34:54;;;;;;;12.95;4.95;;;;;;;4.61;81.48;102847.41;5035769;28;20018;-86
2023/05/03 05:37:23;;;;;;;10.35;5.05;;;;;;;4.63;81.62;102850.94;5035500;28;20430;-87
2023/05/03 05:39:48;;;;;;;10.20;4.80;;;;;;;4.71;81.62;102843.53;5034813;28;20025;-87
2023/05/03 05:42:23;;;;;;;10.70;5.18;;;;;;;4.74;81.11;102851.34;5035690;28;20386;-87
2023/05/03 05:44:51;;;;;;;13.40;5.35;;;;;;;4.75;80.79;102855.69;5035553;28;20029;-86
2023/05/03 05:47:22;;;;;;;11.38;5.13;;;;;;;4.75;80.74;102839.41;4982860;28;20033;-87
2023/05/03 05:49:48;;;;;;;9.73;5.13;;;;;;;4.84;81.40;102850.06;5034710;28;20174;-87
2023/05/03 05:52:13;;;;;;;12.30;5.00;;;;;;;4.88;81.37;102851.94;5035215;28;20473;-86
2023/05/03 05:54:38;;;;;;;13.80;5.30;;;;;;;4.95;81.00;102853.06;5034251;28;20440;-87
2023/05/03 05:57:03;;;;;;;11.15;5.10;;;;;;;4.96;80.56;102854.81;5035372;28;20037;-86
2023/05/03 05:59:30;;;;;;;12.80;5.53;;;;;;;5.03;80.77;102858.50;5034341;28;20052;-86
2023/05/03 06:01:59;;;;;;;11.85;5.47;;;;;;;5.06;80.65;102859.53;5035021;28;20030;-84
2023/05/03 06:04:24;;;;;;;13.80;5.70;;;;;;;5.06;80.24;102859.53;5034483;28;20025;-84
2023/05/03 06:06:49;;;;;;;13.45;5.20;;;;;;;5.12;80.74;102861.47;5034119;28;20461;-86
2023/05/03 06:09:17;;;;;;;10.05;5.00;;;;;;;5.22;81.01;102862.69;5034673;28;20036;-86
2023/05/03 06:11:43;;;;;;;10.32;5.15;;;;;;;5.24;80.04;102851.63;5034497;28;20032;-87
2023/05/03 06:14:08;;;;;;;10.70;5.00;;;;;;;5.39;80.47;102860.78;5034014;28;20033;-86
2023/05/03 06:16:36;;;;;;;9.82;4.30;;;;;;;5.53;80.30;102862.19;5034556;28;20036;-86
2023/05/03 06:19:01;;;;;;;10.88;5.05;;;;;;;5.55;78.69;102852.84;5034466;28;20022;-86
2023/05/03 06:21:27;;;;;;;13.53;5.00;;;;;;;5.60;79.21;102842.69;5043607;23;20064;-85
2023/05/03 06:23:52;;;;;;;14.02;5.18;;;;;;;5.72;79.11;102848.31;5054453;28;20037;-86
2023/05/03 06:26:17;;;;;;;12.05;5.50;;;;;;;5.76;79.12;102846.72;5054174;28;20040;-87
2023/05/03 06:28:44;;;;;;;11.82;5.43;;;;;;;5.85;79.09;102851.34;5305974;22;20047;-87
2023/05/03 06:31:10;;;;;;;10.65;5.13;;;;;;;5.91;78.04;102846.41;5033925;28;20034;-85
2023/05/03 06:33:35;;;;;;;13.93;5.88;;;;;;;5.97;78.22;102854.34;5034016;28;20075;-86
2023/05/03 06:36:07;;;;;;;12.63;5.35;;;;;;;6.07;78.60;102853.03;5034015;28;20025;-88
2023/05/03 06:38:33;;;;;;;10.95;5.53;;;;;;;6.14;77.49;102848.97;5033998;28;20041;-86
2023/05/03 06:40:58;;;;;;;12.37;5.60;;;;;;;6.47;78.12;102841.50;5034317;28;20026;-84
2023/05/03 06:43:24;;;;;;;12.55;5.90;;;;;;;8.09;70.77;102836.03;5034450;28;20036;-89
2023/05/03 06:45:55;;;;;;;10.17;5.30;;;;;;;10.09;64.24;102836.28;5034316;28;20088;-87
2023/05/03 06:48:20;;;;;;;11.85;5.43;;;;;;;11.80;62.53;102824.19;5034320;28;20030;-88
2023/05/03 06:50:46;;;;;;;11.17;5.37;;;;;;;13.17;53.95;102830.56;5026106;28;20036;-90
2023/05/03 06:53:11;;;;;;;11.83;5.20;;;;;;;13.06;52.21;102831.34;5016259;28;20297;-88
2023/05/03 06:55:36;;;;;;;12.13;5.00;;;;;;;13.64;50.45;102827.31;5016742;28;20053;-88
2023/05/03 06:58:08;;;;;;;9.67;4.67;;;;;;;14.48;50.82;102822.25;5016882;28;20511;-90
2023/05/03 07:10:17;;;;;;;7.97;4.50;;;;;;;13.19;48.76;102831.44;5014361;28;20045;-88
2023/05/03 07:12:57;;;;;;;11.03;4.80;;;;;;;11.20;53.66;102839.88;5013473;28;20021;-86
2023/05/03 07:15:54;;;;;;;12.63;4.93;;;;;;;9.77;58.49;102846.06;5013728;28;20390;-85
2023/05/03 07:18:28;;;;;;;10.02;4.40;;;;;;;9.45;60.98;102836.75;5013027;28;20369;-88
2023/05/03 07:21:00;;;;;;;7.03;4.32;;;;;;;9.41;61.90;102824.56;5022941;28;20500;-86
2023/05/03 07:23:56;;;;;;;8.85;4.47;;;;;;;9.38;62.11;102829.72;5033581;28;20025;-86
2023/05/03 07:26:43;;;;;;;8.45;4.60;;;;;;;9.19;64.00;102838.78;5033340;28;20021;-91
2023/05/03 07:29:09;;;;;;;11.48;5.38;;;;;;;9.00;64.96;102840.06;5169515;22;20057;-89
2023/05/03 07:31:34;;;;;;;11.87;5.20;;;;;;;8.77;65.38;102836.13;5033078;28;20039;-85
2023/05/03 07:34:00;;;;;;;10.27;4.87;;;;;;;8.79;66.95;102838.72;5033197;28;20072;-87
2023/05/03 07:36:26;;;;;;;11.20;5.40;;;;;;;8.78;65.93;102822.31;5033344;28;20351;-86
2023/05/03 07:38:51;;;;;;;10.07;5.10;;;;;;;8.80;65.93;102823.22;5032525;28;20555;-85
2023/05/03 07:41:17;;;;;;;10.47;5.00;;;;;;;8.62;66.13;102825.38;5033012;28;20029;-86
2023/05/03 07:43:46;;;;;;;10.88;5.40;;;;;;;8.68;66.63;102809.97;5032206;28;20433;-88
2023/05/03 07:46:11;;;;;;;10.65;4.97;;;;;;;8.78;66.35;102804.19;5032661;28;20021;-85
2023/05/03 07:48:36;;;;;;;9.40;4.83;;;;;;;8.99;66.77;102805.53;5032764;28;20057;-86
2023/05/03 07:51:05;;;;;;;11.23;5.17;;;;;;;9.09;64.84;102811.78;5031942;28;20120;-86
2023/05/03 07:53:30;;;;;;;12.15;5.18;;;;;;;8.90;63.98;102802.72;5032412;28;20033;-87
2023/05/03 07:55:55;;;;;;;11.27;5.10;;;;;;;8.92;63.70;102801.03;5033372;28;20025;-87
2023/05/03 07:58:20;;;;;;;11.77;5.47;;;;;;;8.86;63.77;102793.16;5032759;28;20589;-87
2023/05/03 08:00:46;;;;;;;10.60;4.97;;;;;;;9.01;64.16;102795.22;5032158;28;20163;-87
2023/05/03 08:03:11;;;;;;;11.07;4.87;;;;;;;9.12;64.04;102796.31;5033144;28;20021;-86
2023/05/03 08:05:36;;;;;;;10.93;5.10;;;;;;;9.18;61.78;102786.09;5032695;28;20125;-85
2023/05/03 08:08:02;;;;;;;10.23;4.80;;;;;;;9.05;61.64;102787.53;5031863;28;20017;-85
2023/05/03 08:10:28;;;;;;;10.03;4.70;;;;;;;9.11;62.94;102787.69;5031072;28;20492;-88
2023/05/03 08:12:54;;;;;;;9.80;4.30;;;;;;;9.32;63.03;102783.81;5014655;28;20289;-88
2023/05/03 08:15:22;;;;;;;9.17;4.60;;;;;;;9.51;62.39;102773.81;5012600;28;20092;-89
2023/05/03 08:17:47;;;;;;;8.07;4.32;;;;;;;9.70;63.22;102754.31;5026830;28;20037;-89
2023/05/03 08:20:13;;;;;;;9.43;4.43;;;;;;;9.87;59.46;102755.50;5030892;28;20025;-88
2023/05/03 08:22:39;;;;;;;10.03;4.00;;;;;;;9.94;59.78;102763.41;5013114;28;20022;-89
2023/05/03 08:25:05;;;;;;;6.00;3.97;;;;;;;10.16;60.21;102769.81;5013864;28;20085;-88
2023/05/03 08:27:31;;;;;;;9.33;4.33;;;;;;;10.21;57.30;102768.19;5012368;28;20048;-86
2023/05/03 08:29:56;;;;;;;5.93;3.60;;;;;;;10.34;59.86;102757.19;5012608;28;20042;-88
2023/05/03 08:32:22;;;;;;;9.97;4.40;;;;;;;10.23;57.88;102774.28;5376231;23;20111;-89
2023/05/03 08:34:48;;;;;;;9.93;4.00;;;;;;;10.20;59.20;102766.44;5032812;28;20030;-87
2023/05/03 08:37:13;;;;;;;10.03;4.40;;;;;;;10.34;58.36;102762.38;5032514;28;20386;-79
2023/05/03 08:39:39;;;;;;;7.50;3.63;;;;;;;10.52;58.17;102760.94;5032607;28;20030;-88
2023/05/03 08:44:43;;;;;;;7.90;3.50;;;;;;;10.71;54.93;102766.41;5011000;28;20046;-87
2023/05/03 08:47:08;;;;;;;6.90;3.60;;;;;;;10.92;54.59;102764.13;5012859;28;20555;-87
2023/05/03 08:49:36;;;;;;;8.10;3.60;;;;;;;10.94;53.43;102762.41;5012185;28;20037;-85
2023/05/03 08:52:07;;;;;;;10.10;3.80;;;;;;;10.90;53.77;102755.47;5012611;28;20034;-87
2023/05/03 08:54:32;;;;;;;7.18;3.40;;;;;;;11.05;54.47;102757.38;5014263;28;20100;-87
2023/05/03 08:56:58;;;;;;;6.17;3.90;;;;;;;10.63;52.75;102768.91;5015348;28;20053;-86
2023/05/03 08:59:24;;;;;;;6.03;3.53;;;;;;;10.76;54.68;102775.16;5014125;28;20018;-86
2023/05/03 09:01:50;;;;;;;8.23;3.70;;;;;;;11.04;54.03;102780.72;5014846;28;20029;-87
2023/05/03 09:04:16;;;;;;;8.37;3.87;;;;;;;11.20;51.00;102771.44;5015169;28;20421;-86
2023/05/03 09:06:41;;;;;;;8.90;3.73;;;;;;;11.30;53.99;102768.09;5015729;28;20045;-86
2023/05/03 09:09:07;;;;;;;8.50;4.07;;;;;;;11.53;53.27;102767.50;5016325;28;20497;-87
2023/05/03 09:11:33;;;;;;;8.43;4.40;;;;;;;11.35;51.95;102775.97;5015562;28;20030;-85
2023/05/03 09:14:14;;;;;;;8.80;4.40;;;;;;;11.00;52.83;102759.03;5015952;28;20458;-86
2023/05/03 09:16:45;;;;;;;7.65;4.15;;;;;;;11.15;53.38;102770.50;5014767;28;20125;-85
2023/05/03 09:19:12;;;;;;;8.98;4.55;;;;;;;11.22;52.83;102770.59;5016384;28;20029;-86
2023/05/03 09:21:39;;;;;;;9.52;4.38;;;;;;;11.27;52.18;102774.13;5015440;28;20034;-86
2023/05/03 09:24:18;;;;;;;9.43;4.63;;;;;;;11.03;52.81;102773.81;5015049;28;20057;-85
2023/05/03 09:26:45;;;;;;;9.07;4.30;;;;;;;10.97;51.95;102770.25;5015645;28;20470;-87
2023/05/03 09:29:27;;;;;;;7.30;4.00;;;;;;;11.10;51.70;102773.91;5015530;28;20041;-86
2023/05/03 09:32:01;;;;;;;8.25;4.10;;;;;;;11.31;52.19;102775.06;5015375;28;20412;-86
2023/05/03 09:34:34;;;;;;;7.95;4.03;;;;;;;11.64;51.26;102773.72;5015581;28;20436;-88
2023/05/03 09:37:00;;;;;;;6.72;3.80;;;;;;;11.90;52.73;102760.09;5015820;28;20018;-85
2023/05/03 09:39:25;;;;;;;7.83;3.90;;;;;;;12.10;49.53;102756.84;5080353;22;20073;-85
2023/05/03 09:41:51;;;;;;;6.07;3.60;;;;;;;12.41;50.87;102750.16;5014833;28;20540;-86
2023/05/03 09:44:16;;;;;;;7.67;3.07;;;;;;;12.62;51.92;102765.06;5015661;28;20040;-86
2023/05/03 09:49:17;;;;;;;8.60;4.25;;;;;;;12.14;49.00;102758.59;5097918;22;20061;-86
2023/05/03 09:51:42;;;;;;;7.47;3.80;;;;;;;12.20;50.63;102756.06;5028301;28;20022;-86
2023/05/03 09:54:09;;;;;;;6.47;3.40;;;;;;;12.44;52.05;102750.19;5034928;28;20567;-85
2023/05/03 09:56:37;;;;;;;7.72;3.90;;;;;;;12.72;48.89;102744.28;5034874;28;20037;-85
2023/05/03 09:59:06;;;;;;;6.63;4.22;;;;;;;12.44;48.35;102750.19;5034216;28;20028;-85
2023/05/03 10:01:34;;;;;;;8.55;4.25;;;;;;;12.36;49.20;102747.50;5034560;28;20022;-85
2023/05/03 10:04:01;;;;;;;7.72;3.67;;;;;;;12.54;49.90;102738.13;5034875;28;20018;-84
2023/05/03 10:06:32;;;;;;;10.60;4.38;;;;;;;12.49;48.06;102738.09;5472522;22;20059;-84
2023/05/03 10:09:15;;;;;;;8.05;4.18;;;;;;;12.21;48.06;102747.41;5014790;28;20029;-84
2023/05/03 10:11:46;;;;;;;9.05;4.10;;;;;;;12.33;48.10;102746.63;5014169;28;20038;-84
2023/05/03 10:14:11;;;;;;;6.50;4.32;;;;;;;12.18;47.45;102743.03;5014140;28;20367;-84
2023/05/03 10:16:39;;;;;;;6.93;4.00;;;;;;;12.29;49.18;102739.63;5014573;28;20105;-84
2023/05/03 10:19:16;;;;;;;8.60;4.13;;;;;;;12.35;47.97;102747.50;5014707;28;20021;-84
2023/05/03 10:21:50;;;;;;;;;;;;;;;12.40;48.72;102745.81;5014513;28;20022;-85
2023/05/03 10:24:16;;;;;;;7.13;4.20;;;;;;;12.55;46.64;102750.28;5014693;28;19916;-85
2023/05/03 10:26:46;;;;;;;9.13;4.23;;;;;;;12.72;48.70;102750.34;5014079;28;20018;-84
2023/05/03 10:29:45;;;;;;;9.05;4.30;;;;;;;12.72;48.21;102744.28;5014487;28;20021;-83
2023/05/03 10:32:28;;;;;;;5.30;3.50;;;;;;;12.98;48.64;102744.44;5013804;28;20064;-84
2023/05/03 10:35:06;;;;;;;8.65;4.00;;;;;;;13.22;46.13;102745.41;5013647;28;20390;-84
2023/05/03 10:37:33;;;;;;;8.77;3.92;;;;;;;13.19;46.65;102750.59;5014235;28;20018;-84
2023/05/03 10:40:06;;;;;;;10.30;4.20;;;;;;;13.29;46.83;102747.16;5014459;28;20037;-84
2023/05/03 10:42:32;;;;;;;7.32;3.78;;;;;;;13.40;46.06;102734.22;5013417;28;20080;-84
2023/05/03 10:45:00;;;;;;;7.50;3.72;;;;;;;13.56;47.32;102738.63;5014520;28;20064;-84
2023/05/03 10:47:25;;;;;;;6.80;3.80;;;;;;;13.85;45.74;102742.13;5014154;28;20070;-84
2023/05/03 10:50:17;;;;;;;9.43;4.00;;;;;;;13.89;46.49;102742.16;5013540;28;20033;-84
2023/05/03 10:52:42;;;;;;;5.63;3.80;;;;;;;13.72;44.97;102736.91;5009969;28;20409;-84
2023/05/03 10:55:14;;;;;;;6.07;4.07;;;;;;;13.61;45.44;102738.63;5013654;28;20025;-84
2023/05/03 10:57:42;;;;;;;6.75;3.50;;;;;;;13.95;47.16;102740.41;5013994;28;20030;-85
2023/05/03 11:00:17;;;;;;;4.63;2.75;;;;;;;14.35;46.93;102733.44;5013095;28;20045;-84
2023/05/03 11:05:17;;;;;;;10.60;4.03;;;;;;;14.31;43.69;102731.69;5012430;28;20042;-83
2023/05/03 11:07:42;;;;;;;7.90;4.38;;;;;;;13.52;44.67;102741.19;5013612;28;20470;-83
2023/05/03 11:10:18;;;;;;;10.30;4.00;;;;;;;13.58;46.81;102729.03;5012815;28;20040;-85
2023/05/03 11:12:44;;;;;;;5.93;3.33;;;;;;;13.97;47.70;102731.69;5013595;28;20018;-84
2023/05/03 11:15:11;;;;;;;8.23;4.20;;;;;;;14.19;44.94;102723.88;5013213;28;20064;-84
2023/05/03 11:17:37;;;;;;;9.25;4.07;;;;;;;14.29;44.32;102715.19;5011950;28;20021;-86
2023/05/03 11:20:07;;;;;;;7.78;4.60;;;;;;;13.95;44.10;102709.97;5006363;28;20022;-83
2023/05/03 11:22:39;;;;;;;8.70;4.18;;;;;;;13.86;44.13;102721.28;5215301;23;20493;-84
2023/05/03 11:25:05;;;;;;;10.07;4.53;;;;;;;13.66;45.14;102710.78;5032519;28;20040;-81
2023/05/03 11:29:58;;;;;;;11.13;4.50;;;;;;;13.45;46.88;102709.03;5030548;28;20460;-86
2023/05/03 11:32:28;;;;;;;9.00;3.97;;;;;;;13.81;47.16;102703.88;5032262;28;20018;-86
2023/05/03 11:34:58;;;;;;;5.78;3.70;;;;;;;14.11;46.52;102700.41;5033129;28;20056;-86
2023/05/03 11:37:33;;;;;;;4.88;3.40;;;;;;;14.52;46.69;102694.25;5032370;28;20148;-85
2023/05/03 11:39:59;;;;;;;5.47;3.20;;;;;;;14.92;45.98;102682.81;5032872;28;20029;-86
2023/05/03 11:42:25;;;;;;;6.72;3.10;;;;;;;15.29;45.74;102694.84;5032771;28;20033;-85
2023/05/03 11:44:55;;;;;;;8.35;3.88;;;;;;;15.26;42.65;102694.84;5032345;28;20051;-85
2023/05/03 11:47:20;;;;;;;6.90;3.60;;;;;;;15.29;43.11;102682.66;5032766;28;20025;-85
2023/05/03 11:49:52;;;;;;;9.37;3.50;;;;;;;15.54;43.91;102677.25;5032842;28;20034;-85
2023/05/03 11:52:22;;;;;;;7.35;3.80;;;;;;;15.52;42.04;102681.66;5032076;28;20025;-86